Time;durP1;ratioP1;P1;durP2;ratioP2;P2;SDS_P1;SDS_P2;PMS_P1;PMS_P2;Temp;Humidity;BMP_temperature;BMP_pressure;BME280_temperature;BME280_humidity;BME280_pressure;Samples;Min_cycle;Max_cycle;Signal;HPM_P1;HPM_P2
2023/04/14 00:01:59;;;;;;;4.03;2.90;;;;;;;;;;4980706;28;20049;-79
2023/04/14 00:04:26;;;;;;;4.50;3.05;;;;;;;;;;4988392;28;20491;-80
2023/04/14 00:06:55;;;;;;;5.75;3.10;;;;;;;;;;4972059;28;20061;-80
2023/04/14 00:09:23;;;;;;;5.18;4.10;;;;;;;;;;4996995;28;20529;-80
2023/04/14 00:11:50;;;;;;;4.40;2.92;;;;;;;;;;4963182;28;20057;-79
2023/04/14 00:14:17;;;;;;;6.68;3.13;;;;;;;;;;4991072;28;20049;-80
2023/04/14 00:16:45;;;;;;;5.10;3.08;;;;;;;;;;4979698;28;20101;-79
2023/04/14 00:19:11;;;;;;;4.47;3.00;;;;;;;;;;4966489;28;20053;-79
2023/04/14 00:21:38;;;;;;;4.88;3.33;;;;;;;;;;4980322;28;20060;-79
2023/04/14 00:24:05;;;;;;;6.63;3.20;;;;;;;;;;4970378;28;20070;-80
2023/04/14 00:26:32;;;;;;;4.68;3.13;;;;;;;;;;4979928;28;20066;-80
2023/04/14 00:28:58;;;;;;;5.97;3.60;;;;;;;;;;4973250;28;20054;-80
2023/04/14 00:31:26;;;;;;;5.38;3.13;;;;;;;;;;4989862;28;20054;-80
2023/04/14 00:33:52;;;;;;;4.90;3.25;;;;;;;;;;4983816;28;20045;-79
2023/04/14 00:36:19;;;;;;;5.45;3.30;;;;;;;;;;4987801;28;20461;-79
2023/04/14 00:38:46;;;;;;;4.45;3.08;;;;;;;;;;4969610;28;20065;-78
2023/04/14 00:41:12;;;;;;;4.93;3.65;;;;;;;;;;4982176;28;20077;-79
2023/04/14 00:43:39;;;;;;;3.30;2.88;;;;;;;;;;4994366;28;20057;-79
2023/04/14 00:46:06;;;;;;;6.57;3.08;;;;;;;;;;4973913;28;20052;-79
2023/04/14 00:48:33;;;;;;;5.88;3.47;;;;;;;;;;4985079;28;20058;-78
2023/04/14 00:51:00;;;;;;;5.63;3.63;;;;;;;;;;4996313;28;20062;-78
2023/04/14 00:53:27;;;;;;;5.13;3.80;;;;;;;;;;4978167;28;20097;-79
2023/04/14 00:55:54;;;;;;;6.22;3.67;;;;;;;;;;4993505;28;20054;-79
2023/04/14 00:58:21;;;;;;;6.15;3.42;;;;;;;;;;4983507;28;20068;-79
2023/04/14 01:00:52;;;;;;;7.05;4.28;;;;;;;;;;4982681;28;20058;-79
2023/04/14 01:03:19;;;;;;;6.80;4.65;;;;;;;;;;4967765;28;20116;-79
2023/04/14 01:05:46;;;;;;;7.68;4.75;;;;;;;;;;4973428;28;20057;-78
2023/04/14 01:08:13;;;;;;;7.10;4.20;;;;;;;;;;4964244;28;20523;-78
2023/04/14 01:10:45;;;;;;;7.97;4.72;;;;;;;;;;4966091;28;20049;-78
2023/04/14 01:13:19;;;;;;;11.60;5.00;;;;;;;;;;4972759;28;20057;-78
2023/04/14 01:15:56;;;;;;;6.32;4.97;;;;;;;;;;4989592;28;20479;-79
2023/04/14 01:18:41;;;;;;;8.70;5.05;;;;;;;;;;4979657;28;20544;-79
2023/04/14 01:21:17;;;;;;;9.00;5.28;;;;;;;;;;4989999;28;20057;-78
2023/04/14 01:24:16;;;;;;;10.43;5.13;;;;;;;;;;4967497;28;20057;-79
2023/04/14 01:26:43;;;;;;;11.25;5.60;;;;;;;;;;4973591;28;20057;-78
2023/04/14 01:29:28;;;;;;;10.35;5.28;;;;;;;;;;4975718;28;20065;-79
2023/04/14 01:32:08;;;;;;;10.65;6.03;;;;;;;;;;5000051;28;20047;-78
2023/04/14 01:34:57;;;;;;;9.30;6.10;;;;;;;;;;4968652;28;20149;-78
2023/04/14 01:37:32;;;;;;;8.23;5.68;;;;;;;;;;4971569;28;20057;-78
2023/04/14 01:40:10;;;;;;;10.10;5.60;;;;;;;;;;4976053;28;20054;-78
2023/04/14 01:42:37;;;;;;;8.23;5.50;;;;;;;;;;4963789;28;20394;-78
2023/04/14 01:45:15;;;;;;;9.77;6.53;;;;;;;;;;4992705;28;20064;-77
2023/04/14 01:47:42;;;;;;;11.65;6.30;;;;;;;;;;4991025;28;20069;-79
2023/04/14 01:50:09;;;;;;;9.90;6.82;;;;;;;;;;4967706;28;20046;-79
2023/04/14 01:52:36;;;;;;;11.60;6.35;;;;;;;;;;4984915;28;20061;-78
2023/04/14 01:55:05;;;;;;;12.18;6.97;;;;;;;;;;4970470;28;20053;-78
2023/04/14 01:57:32;;;;;;;12.05;6.72;;;;;;;;;;4961209;28;20133;-78
2023/04/14 01:59:59;;;;;;;11.70;6.80;;;;;;;;;;4966382;28;20050;-77
2023/04/14 02:02:26;;;;;;;12.25;6.70;;;;;;;;;;4968414;28;20054;-78
2023/04/14 02:04:56;;;;;;;10.35;6.07;;;;;;;;;;4958927;28;20478;-79
2023/04/14 02:07:23;;;;;;;11.52;6.47;;;;;;;;;;4987429;28;20509;-80
2023/04/14 02:09:50;;;;;;;8.60;6.25;;;;;;;;;;4961718;28;20064;-80
2023/04/14 02:12:18;;;;;;;15.15;7.43;;;;;;;;;;4970975;28;20076;-79
2023/04/14 02:14:45;;;;;;;11.45;6.13;;;;;;;;;;4970191;28;20138;-80
2023/04/14 02:17:12;;;;;;;10.02;7.60;;;;;;;;;;4978831;28;20068;-79
2023/04/14 02:19:40;;;;;;;13.32;6.85;;;;;;;;;;4963036;28;20060;-80
2023/04/14 02:22:06;;;;;;;12.45;6.53;;;;;;;;;;4981330;28;20077;-77
2023/04/14 02:24:33;;;;;;;10.93;6.97;;;;;;;;;;4959560;28;20046;-77
2023/04/14 02:27:26;;;;;;;10.68;6.60;;;;;;;;;;4963988;28;20054;-79
2023/04/14 02:29:52;;;;;;;11.15;6.25;;;;;;;;;;4986369;28;20073;-79
2023/04/14 02:32:29;;;;;;;10.68;6.70;;;;;;;;;;4968126;28;20054;-79
2023/04/14 02:35:17;;;;;;;11.88;6.90;;;;;;;;;;4978981;28;20107;-79
2023/04/14 02:37:48;;;;;;;13.00;7.18;;;;;;;;;;4986322;28;20050;-79
2023/04/14 02:40:19;;;;;;;11.73;7.88;;;;;;;;;;4959614;28;20058;-79
2023/04/14 02:42:49;;;;;;;16.65;8.05;;;;;;;;;;4975052;28;20058;-79
2023/04/14 02:45:20;;;;;;;13.60;8.02;;;;;;;;;;4964264;28;20061;-79
2023/04/14 02:47:52;;;;;;;13.18;8.50;;;;;;;;;;4966979;28;20049;-77
2023/04/14 02:50:19;;;;;;;13.57;8.13;;;;;;;;;;4964185;28;20054;-77
2023/04/14 02:52:50;;;;;;;11.65;7.90;;;;;;;;;;4973090;28;20506;-77
2023/04/14 02:55:18;;;;;;;11.48;6.90;;;;;;;;;;4960480;28;20061;-77
2023/04/14 02:57:46;;;;;;;10.05;7.05;;;;;;;;;;4973389;28;20403;-78
2023/04/14 03:00:13;;;;;;;11.23;7.25;;;;;;;;;;4982570;28;20625;-77
2023/04/14 03:02:39;;;;;;;10.38;7.35;;;;;;;;;;4955957;28;20061;-78
2023/04/14 03:05:07;;;;;;;14.45;8.40;;;;;;;;;;4962706;28;20053;-75
2023/04/14 03:07:34;;;;;;;15.52;8.40;;;;;;;;;;4989530;28;20053;-80
2023/04/14 03:10:00;;;;;;;12.88;7.95;;;;;;;;;;4967092;28;20415;-79
2023/04/14 03:12:27;;;;;;;12.52;7.13;;;;;;;;;;4976105;28;20081;-80
2023/04/14 03:14:54;;;;;;;14.60;7.70;;;;;;;;;;5002732;28;20145;-79
2023/04/14 03:17:21;;;;;;;14.07;8.05;;;;;;;;;;4967668;28;20054;-79
2023/04/14 03:19:48;;;;;;;15.65;8.68;;;;;;;;;;4973680;28;20731;-79
2023/04/14 03:22:18;;;;;;;12.38;7.82;;;;;;;;;;4978634;28;20498;-79
2023/04/14 03:24:45;;;;;;;14.60;8.60;;;;;;;;;;4973240;28;20738;-81
2023/04/14 03:27:21;;;;;;;13.45;8.13;;;;;;;;;;4966909;28;20061;-80
2023/04/14 03:29:50;;;;;;;14.82;8.85;;;;;;;;;;4989386;28;20046;-80
2023/04/14 03:32:18;;;;;;;15.05;8.63;;;;;;;;;;4997977;28;20057;-80
2023/04/14 03:34:47;;;;;;;13.50;7.35;;;;;;;;;;4963768;28;20046;-81
2023/04/14 03:37:17;;;;;;;13.13;8.60;;;;;;;;;;4992188;28;20055;-82
2023/04/14 03:39:44;;;;;;;14.43;8.23;;;;;;;;;;4963394;28;20112;-82
2023/04/14 03:42:11;;;;;;;13.82;7.80;;;;;;;;;;4992735;28;20125;-82
2023/04/14 03:44:41;;;;;;;14.02;7.68;;;;;;;;;;4966103;28;20049;-82
2023/04/14 03:47:09;;;;;;;13.13;7.55;;;;;;;;;;4964956;28;20046;-81
2023/04/14 03:49:37;;;;;;;15.57;8.98;;;;;;;;;;4971163;28;20062;-81
2023/04/14 03:52:09;;;;;;;11.55;8.10;;;;;;;;;;4973413;28;20061;-81
2023/04/14 03:54:37;;;;;;;13.33;8.57;;;;;;;;;;4991024;28;20046;-81
2023/04/14 03:57:05;;;;;;;12.77;8.65;;;;;;;;;;4968718;28;20320;-80
2023/04/14 03:59:33;;;;;;;14.52;8.57;;;;;;;;;;4981053;28;20050;-79
2023/04/14 04:02:01;;;;;;;15.05;9.82;;;;;;;;;;4991493;28;20101;-78
2023/04/14 04:04:29;;;;;;;13.00;8.38;;;;;;;;;;4976904;28;20105;-79
2023/04/14 04:06:57;;;;;;;15.95;10.30;;;;;;;;;;4964428;28;20065;-82
2023/04/14 04:09:24;;;;;;;20.63;14.02;;;;;;;;;;4960466;28;20521;-81
2023/04/14 04:11:55;;;;;;;21.95;15.75;;;;;;;;;;4990228;28;20061;-79
2023/04/14 04:14:22;;;;;;;20.92;14.50;;;;;;;;;;4968898;28;20076;-80
2023/04/14 04:16:49;;;;;;;21.17;13.52;;;;;;;;;;4977378;28;20077;-79
2023/04/14 04:19:20;;;;;;;18.98;9.95;;;;;;;;;;5010229;28;20065;-79
2023/04/14 04:21:50;;;;;;;15.73;9.00;;;;;;;;;;4979793;28;21373;-79
2023/04/14 04:24:19;;;;;;;16.35;10.57;;;;;;;;;;4961306;28;20065;-78
2023/04/14 04:26:45;;;;;;;18.65;9.20;;;;;;;;;;4978267;28;20053;-80
2023/04/14 04:29:12;;;;;;;15.95;9.73;;;;;;;;;;4967178;28;20582;-79
2023/04/14 04:31:39;;;;;;;15.57;9.68;;;;;;;;;;4968459;28;20061;-80
2023/04/14 04:34:07;;;;;;;12.05;9.52;;;;;;;;;;4991435;28;20054;-81
2023/04/14 04:36:34;;;;;;;13.77;9.13;;;;;;;;;;4970871;28;20061;-79
2023/04/14 04:39:01;;;;;;;15.18;8.90;;;;;;;;;;4967604;28;20054;-79
2023/04/14 04:41:29;;;;;;;12.02;8.98;;;;;;;;;;4986413;28;20064;-79
2023/04/14 04:43:57;;;;;;;13.18;9.35;;;;;;;;;;4993087;28;20683;-80
2023/04/14 04:46:43;;;;;;;14.32;8.23;;;;;;;;;;4989840;28;20514;-79
2023/04/14 04:49:10;;;;;;;15.05;8.35;;;;;;;;;;4992809;28;20064;-79
2023/04/14 04:51:37;;;;;;;12.43;7.80;;;;;;;;;;4992873;28;20422;-80
2023/04/14 04:54:05;;;;;;;12.63;7.32;;;;;;;;;;4962482;28;20042;-79
2023/04/14 04:56:32;;;;;;;13.40;8.15;;;;;;;;;;4984625;28;20054;-80
2023/04/14 04:58:59;;;;;;;15.27;7.57;;;;;;;;;;4986645;28;20109;-80
2023/04/14 05:01:26;;;;;;;12.20;7.80;;;;;;;;;;4985012;28;20050;-80
2023/04/14 05:03:53;;;;;;;17.35;7.85;;;;;;;;;;4976559;28;20054;-80
2023/04/14 05:06:20;;;;;;;11.27;7.20;;;;;;;;;;4977806;28;20137;-80
2023/04/14 05:08:47;;;;;;;11.52;7.30;;;;;;;;;;4958786;28;20058;-80
2023/04/14 05:11:14;;;;;;;13.55;7.85;;;;;;;;;;4963794;28;20058;-80
2023/04/14 05:13:41;;;;;;;11.20;7.38;;;;;;;;;;4971723;28;20077;-81
2023/04/14 05:16:08;;;;;;;10.73;6.53;;;;;;;;;;4987383;28;20057;-80
2023/04/14 05:18:35;;;;;;;14.50;6.95;;;;;;;;;;4962530;28;20132;-81
2023/04/14 05:21:04;;;;;;;15.80;7.30;;;;;;;;;;4984775;28;20053;-80
2023/04/14 05:23:35;;;;;;;11.20;6.45;;;;;;;;;;4964984;28;20046;-81
2023/04/14 05:26:03;;;;;;;10.98;6.68;;;;;;;;;;4967761;28;20054;-81
2023/04/14 05:28:49;;;;;;;13.40;6.25;;;;;;;;;;4977448;28;20450;-82
2023/04/14 05:31:16;;;;;;;17.23;6.50;;;;;;;;;;4981376;28;20080;-81
2023/04/14 05:33:43;;;;;;;12.65;6.80;;;;;;;;;;4992119;28;20054;-82
2023/04/14 05:36:10;;;;;;;9.60;6.32;;;;;;;;;;4986530;28;20058;-81
2023/04/14 05:38:39;;;;;;;14.48;7.05;;;;;;;;;;4992850;28;20140;-81
2023/04/14 05:41:06;;;;;;;12.63;6.55;;;;;;;;;;4976283;28;20517;-81
2023/04/14 05:43:33;;;;;;;15.30;7.60;;;;;;;;;;4975208;28;20065;-81
2023/04/14 05:46:00;;;;;;;10.95;6.93;;;;;;;;;;4963431;28;20506;-80
2023/04/14 05:48:29;;;;;;;11.10;6.78;;;;;;;;;;4988040;28;20078;-79
2023/04/14 05:50:56;;;;;;;13.13;6.18;;;;;;;;;;4964619;28;20551;-80
2023/04/14 05:53:24;;;;;;;11.50;7.00;;;;;;;;;;4954283;28;20093;-80
2023/04/14 05:55:51;;;;;;;11.73;6.40;;;;;;;;;;4980455;28;20054;-80
2023/04/14 05:58:18;;;;;;;16.73;7.97;;;;;;;;;;4968188;28;20056;-80
2023/04/14 06:00:45;;;;;;;14.80;6.25;;;;;;;;;;4971315;28;20077;-85
2023/04/14 06:03:13;;;;;;;12.02;6.35;;;;;;;;;;4965287;28;20058;-80
2023/04/14 06:05:41;;;;;;;11.13;6.15;;;;;;;;;;4983311;28;20054;-80
2023/04/14 06:08:07;;;;;;;9.27;5.60;;;;;;;;;;5002658;28;20087;-76
2023/04/14 06:10:34;;;;;;;18.02;7.15;;;;;;;;;;4989466;28;20049;-73
2023/04/14 06:13:01;;;;;;;30.63;10.15;;;;;;;;;;4983921;28;20128;-77
2023/04/14 06:15:28;;;;;;;23.38;9.70;;;;;;;;;;4987926;28;20061;-77
2023/04/14 06:17:55;;;;;;;20.60;9.25;;;;;;;;;;4986505;28;20128;-77
2023/04/14 06:20:22;;;;;;;19.25;8.45;;;;;;;;;;4971437;28;20064;-81
2023/04/14 06:22:48;;;;;;;13.98;5.72;;;;;;;;;;4994226;28;20135;-77
2023/04/14 06:25:15;;;;;;;10.15;3.47;;;;;;;;;;4988165;28;20061;-76
2023/04/14 06:27:42;;;;;;;6.63;3.28;;;;;;;;;;4982138;28;20054;-76
2023/04/14 06:30:09;;;;;;;6.32;3.00;;;;;;;;;;4981800;28;20062;-77
2023/04/14 06:32:36;;;;;;;11.63;3.40;;;;;;;;;;4978555;28;20054;-76
2023/04/14 06:35:03;;;;;;;23.38;8.77;;;;;;;;;;4988290;28;20758;-76
2023/04/14 06:37:31;;;;;;;15.23;7.75;;;;;;;;;;4978370;28;20062;-75
2023/04/14 06:39:57;;;;;;;13.45;7.55;;;;;;;;;;4978452;28;20057;-76
2023/04/14 06:42:24;;;;;;;9.13;4.45;;;;;;;;;;4990425;28;20108;-76
2023/04/14 06:44:51;;;;;;;9.98;3.60;;;;;;;;;;4989153;28;20549;-76
2023/04/14 06:47:19;;;;;;;7.30;2.85;;;;;;;;;;4984525;28;20430;-76
2023/04/14 06:49:46;;;;;;;6.75;2.13;;;;;;;;;;4971520;28;20138;-77
2023/04/14 06:52:13;;;;;;;9.00;2.78;;;;;;;;;;4996755;28;20054;-76
2023/04/14 06:54:41;;;;;;;7.07;2.95;;;;;;;;;;4996814;28;20077;-76
2023/04/14 06:57:08;;;;;;;5.60;2.97;;;;;;;;;;4987645;28;20506;-76
2023/04/14 06:59:35;;;;;;;9.48;2.38;;;;;;;;;;4981466;28;20050;-76
2023/04/14 07:02:02;;;;;;;6.72;2.58;;;;;;;;;;4963619;28;20066;-74
2023/04/14 07:04:29;;;;;;;5.03;2.25;;;;;;;;;;4988218;28;20136;-74
2023/04/14 07:07:01;;;;;;;7.53;2.55;;;;;;;;;;4988186;28;20058;-76
2023/04/14 07:09:28;;;;;;;11.65;2.95;;;;;;;;;;4980940;28;20058;-75
2023/04/14 07:11:56;;;;;;;8.35;2.20;;;;;;;;;;4982631;28;20338;-74
2023/04/14 07:14:23;;;;;;;9.25;3.17;;;;;;;;;;4982281;28;20049;-75
2023/04/14 07:16:51;;;;;;;7.22;2.38;;;;;;;;;;4972079;28;20617;-75
2023/04/14 07:19:18;;;;;;;7.55;2.22;;;;;;;;;;4967478;28;20061;-74
2023/04/14 07:21:45;;;;;;;5.53;2.15;;;;;;;;;;4973804;28;20184;-74
2023/04/14 07:24:12;;;;;;;7.80;2.58;;;;;;;;;;4979157;28;20062;-74
2023/04/14 07:26:42;;;;;;;7.95;2.63;;;;;;;;;;4986376;28;20061;-74
2023/04/14 07:29:09;;;;;;;11.73;2.67;;;;;;;;;;4987711;28;20062;-75
2023/04/14 07:31:36;;;;;;;8.45;4.25;;;;;;;;;;4973556;28;20701;-73
2023/04/14 07:34:03;;;;;;;8.38;4.72;;;;;;;;;;4983180;28;20049;-74
2023/04/14 07:36:31;;;;;;;7.68;2.75;;;;;;;;;;4981174;28;20085;-76
2023/04/14 07:38:58;;;;;;;9.48;3.13;;;;;;;;;;4971845;28;20058;-77
2023/04/14 07:41:27;;;;;;;9.27;3.00;;;;;;;;;;4983212;28;20053;-76
2023/04/14 07:43:54;;;;;;;4.60;2.42;;;;;;;;;;4997477;28;20061;-77
2023/04/14 07:46:21;;;;;;;4.40;1.83;;;;;;;;;;4988076;28;20060;-77
2023/04/14 07:48:48;;;;;;;8.75;2.63;;;;;;;;;;4989566;28;20061;-76
2023/04/14 07:51:15;;;;;;;6.18;2.20;;;;;;;;;;4987993;28;20058;-77
2023/04/14 07:53:43;;;;;;;5.47;1.80;;;;;;;;;;4973173;28;20164;-76
2023/04/14 07:56:11;;;;;;;7.70;2.08;;;;;;;;;;4989822;28;20054;-75
2023/04/14 07:58:37;;;;;;;7.63;1.90;;;;;;;;;;4983718;28;20050;-75
2023/04/14 08:01:05;;;;;;;5.35;1.77;;;;;;;;;;4997330;28;20054;-76
2023/04/14 08:03:32;;;;;;;8.82;1.77;;;;;;;;;;4982496;28;20061;-78
2023/04/14 08:06:06;;;;;;;5.72;2.28;;;;;;;;;;4976626;28;20699;-75
2023/04/14 08:08:34;;;;;;;7.90;1.92;;;;;;;;;;4986195;28;20093;-74
2023/04/14 08:11:00;;;;;;;7.53;1.38;;;;;;;;;;4982122;28;20061;-75
2023/04/14 08:13:27;;;;;;;4.97;1.42;;;;;;;;;;4968488;28;20068;-75
2023/04/14 08:15:54;;;;;;;5.32;1.40;;;;;;;;;;4993403;28;20501;-75
2023/04/14 08:18:21;;;;;;;5.90;1.52;;;;;;;;;;4989846;28;20054;-75
2023/04/14 08:20:48;;;;;;;10.05;4.55;;;;;;;;;;4974969;28;20190;-75
2023/04/14 08:23:15;;;;;;;11.57;3.95;;;;;;;;;;4976785;28;20424;-75
2023/04/14 08:25:43;;;;;;;10.73;5.03;;;;;;;;;;4988292;28;20053;-75
2023/04/14 08:28:10;;;;;;;10.63;3.17;;;;;;;;;;4971189;28;20435;-76
2023/04/14 08:30:37;;;;;;;6.75;2.20;;;;;;;;;;4976030;28;20050;-76
2023/04/14 08:33:03;;;;;;;11.35;1.77;;;;;;;;;;4976140;28;20050;-76
2023/04/14 08:35:30;;;;;;;7.30;1.98;;;;;;;;;;4959831;28;20057;-76
2023/04/14 08:38:07;;;;;;;7.65;1.50;;;;;;;;;;4977194;28;20503;-76
2023/04/14 08:40:41;;;;;;;6.13;1.92;;;;;;;;;;4975051;28;20061;-76
2023/04/14 08:43:08;;;;;;;5.45;1.50;;;;;;;;;;4960087;28;20054;-76
2023/04/14 08:45:39;;;;;;;7.32;2.28;;;;;;;;;;4976686;28;20090;-76
2023/04/14 08:48:06;;;;;;;10.00;1.88;;;;;;;;;;4966722;28;20081;-76
2023/04/14 08:50:36;;;;;;;6.28;1.55;;;;;;;;;;4995203;28;20057;-76
2023/04/14 08:53:05;;;;;;;4.28;1.40;;;;;;;;;;4995076;28;20140;-76
2023/04/14 08:55:32;;;;;;;5.97;1.95;;;;;;;;;;4979176;28;20054;-76
2023/04/14 08:58:00;;;;;;;4.03;1.60;;;;;;;;;;4994921;28;20053;-76
2023/04/14 09:00:27;;;;;;;6.80;2.00;;;;;;;;;;4994777;28;20058;-76
2023/04/14 09:02:54;;;;;;;3.83;1.55;;;;;;;;;;4994969;28;20093;-76
2023/04/14 09:05:21;;;;;;;3.78;1.60;;;;;;;;;;4979066;28;20097;-76
2023/04/14 09:07:47;;;;;;;6.57;1.50;;;;;;;;;;4978906;28;20062;-75
2023/04/14 09:10:14;;;;;;;7.38;1.70;;;;;;;;;;4963236;28;20436;-75
2023/04/14 09:12:41;;;;;;;4.32;1.45;;;;;;;;;;4979069;28;20119;-75
2023/04/14 09:15:08;;;;;;;4.75;2.15;;;;;;;;;;4993999;28;20054;-76
2023/04/14 09:17:35;;;;;;;5.65;1.67;;;;;;;;;;4960651;28;20053;-76
2023/04/14 09:20:02;;;;;;;8.55;2.20;;;;;;;;;;4943576;28;20419;-76
2023/04/14 09:22:49;;;;;;;10.07;2.75;;;;;;;;;;4978471;28;20466;-76
2023/04/14 09:25:16;;;;;;;5.22;1.40;;;;;;;;;;4959476;28;20054;-76
2023/04/14 09:27:43;;;;;;;6.07;1.40;;;;;;;;;;4959474;28;20058;-76
2023/04/14 09:30:10;;;;;;;7.15;1.67;;;;;;;;;;4975365;28;20066;-76
2023/04/14 09:32:37;;;;;;;7.72;1.90;;;;;;;;;;4975744;28;20066;-76
2023/04/14 09:35:05;;;;;;;7.07;2.15;;;;;;;;;;4943862;28;20566;-76
2023/04/14 09:37:48;;;;;;;4.65;1.42;;;;;;;;;;4975374;28;20232;-76
2023/04/14 09:40:27;;;;;;;;;;;;;;;;;;4975539;28;20090;-76
2023/04/14 09:42:55;;;;;;;9.68;1.90;;;;;;;;;;4975536;28;19933;-76
2023/04/14 09:45:30;;;;;;;7.22;2.55;;;;;;;;;;4975215;28;20573;-75
2023/04/14 09:48:06;;;;;;;5.10;1.50;;;;;;;;;;4961399;28;20050;-79
2023/04/14 09:51:02;;;;;;;5.38;1.80;;;;;;;;;;4974960;28;20538;-77
2023/04/14 09:53:34;;;;;;;7.70;2.00;;;;;;;;;;5003013;28;20278;-76
2023/04/14 09:56:04;;;;;;;5.97;1.80;;;;;;;;;;4993900;28;20072;-77
2023/04/14 09:58:35;;;;;;;5.07;1.60;;;;;;;;;;5001242;28;20062;-77
2023/04/14 10:01:13;;;;;;;5.18;1.63;;;;;;;;;;4942502;28;20058;-76
2023/04/14 10:03:41;;;;;;;8.55;2.30;;;;;;;;;;4974001;28;20169;-75
2023/04/14 10:06:10;;;;;;;6.95;1.88;;;;;;;;;;4964186;28;20572;-75
2023/04/14 10:08:38;;;;;;;9.15;2.00;;;;;;;;;;4974790;28;20050;-75
2023/04/14 10:11:28;;;;;;;6.40;2.75;;;;;;;;;;4990689;28;20061;-75
2023/04/14 10:14:03;;;;;;;3.90;1.65;;;;;;;;;;4991116;28;20058;-75
2023/04/14 10:16:30;;;;;;;6.72;2.03;;;;;;;;;;4998736;28;20498;-75
2023/04/14 10:18:57;;;;;;;5.90;2.13;;;;;;;;;;4981073;28;20437;-75
2023/04/14 10:21:25;;;;;;;9.18;2.00;;;;;;;;;;4982970;28;20113;-75
2023/04/14 10:23:51;;;;;;;6.75;1.75;;;;;;;;;;4981463;28;20058;-75
2023/04/14 10:26:18;;;;;;;6.00;1.70;;;;;;;;;;4967893;28;20042;-74
2023/04/14 10:28:47;;;;;;;5.88;1.77;;;;;;;;;;4983588;28;20054;-76
2023/04/14 10:31:18;;;;;;;7.93;2.45;;;;;;;;;;4952923;28;20053;-75
2023/04/14 10:33:45;;;;;;;8.38;1.90;;;;;;;;;;4979820;28;20418;-75
2023/04/14 10:36:30;;;;;;;8.23;1.83;;;;;;;;;;4975436;28;20461;-75
2023/04/14 10:39:01;;;;;;;6.15;1.67;;;;;;;;;;4989211;28;20053;-75
2023/04/14 10:41:48;;;;;;;5.55;3.10;;;;;;;;;;4981159;28;20108;-75
2023/04/14 10:44:32;;;;;;;6.72;1.85;;;;;;;;;;4991581;28;20054;-75
2023/04/14 10:47:03;;;;;;;6.45;1.83;;;;;;;;;;4990305;28;20061;-75
2023/04/14 10:49:31;;;;;;;6.22;1.65;;;;;;;;;;4981217;28;20458;-74
2023/04/14 10:52:24;;;;;;;5.90;1.70;;;;;;;;;;4975682;28;20088;-74
2023/04/14 10:54:52;;;;;;;7.82;1.80;;;;;;;;;;4981758;28;20046;-75
2023/04/14 10:57:25;;;;;;;8.65;2.03;;;;;;;;;;4991340;28;20054;-75
2023/04/14 11:00:19;;;;;;;4.45;1.17;;;;;;;;;;4980246;28;20148;-75
2023/04/14 11:03:11;;;;;;;7.72;2.10;;;;;;;;;;4974962;28;20142;-75
2023/04/14 11:05:50;;;;;;;5.50;1.58;;;;;;;;;;4988392;28;20425;-75
2023/04/14 11:08:46;;;;;;;8.07;1.92;;;;;;;;;;4979652;28;20136;-75
2023/04/14 11:11:12;;;;;;;4.57;1.30;;;;;;;;;;4965813;28;20112;-75
2023/04/14 11:13:39;;;;;;;7.18;1.65;;;;;;;;;;4958210;28;20065;-75
2023/04/14 11:16:06;;;;;;;4.47;1.27;;;;;;;;;;4955631;28;20046;-75
2023/04/14 11:18:41;;;;;;;6.88;1.60;;;;;;;;;;4964904;28;20525;-74
2023/04/14 11:21:13;;;;;;;5.65;1.45;;;;;;;;;;5003931;28;20064;-74
2023/04/14 11:23:40;;;;;;;6.80;1.50;;;;;;;;;;4989745;28;20058;-74
2023/04/14 11:26:08;;;;;;;5.28;1.40;;;;;;;;;;4972701;28;20417;-74
2023/04/14 11:28:37;;;;;;;5.50;1.40;;;;;;;;;;4979532;28;20097;-74
2023/04/14 11:31:07;;;;;;;5.63;1.55;;;;;;;;;;4964505;28;20505;-75
2023/04/14 11:33:38;;;;;;;3.60;1.50;;;;;;;;;;4978258;28;20054;-75
2023/04/14 11:36:08;;;;;;;4.43;1.10;;;;;;;;;;4981713;28;20047;-75
2023/04/14 11:38:39;;;;;;;5.82;2.00;;;;;;;;;;4973757;28;20054;-76
2023/04/14 11:41:06;;;;;;;2.55;1.05;;;;;;;;;;4976098;28;20050;-76
2023/04/14 11:43:33;;;;;;;5.50;1.70;;;;;;;;;;4987628;28;20062;-74
2023/04/14 11:46:00;;;;;;;5.53;1.30;;;;;;;;;;4986048;28;20109;-75
2023/04/14 11:48:28;;;;;;;3.83;1.23;;;;;;;;;;4970256;28;20100;-75
2023/04/14 11:51:01;;;;;;;4.80;1.40;;;;;;;;;;4968805;28;20096;-78
2023/04/14 11:53:28;;;;;;;6.80;1.67;;;;;;;;;;4997075;28;20060;-79
2023/04/14 11:55:56;;;;;;;5.00;1.50;;;;;;;;;;4995086;28;20052;-79
2023/04/14 11:58:24;;;;;;;6.53;1.85;;;;;;;;;;4983974;28;20530;-76
2023/04/14 12:00:51;;;;;;;3.90;1.35;;;;;;;;;;4992260;28;20066;-75
2023/04/14 12:03:22;;;;;;;5.30;1.50;;;;;;;;;;4963616;28;20137;-74
2023/04/14 12:05:49;;;;;;;6.00;1.33;;;;;;;;;;4963663;28;20134;-79
2023/04/14 12:08:16;;;;;;;3.88;1.50;;;;;;;;;;4962662;28;20054;-76
2023/04/14 12:10:44;;;;;;;6.75;1.42;;;;;;;;;;4969823;28;20062;-77
2023/04/14 12:13:11;;;;;;;5.85;1.23;;;;;;;;;;4995770;28;20056;-82
2023/04/14 12:15:39;;;;;;;6.50;1.30;;;;;;;;;;4981536;28;20092;-75
2023/04/14 12:18:12;;;;;;;4.97;1.20;;;;;;;;;;4997156;28;20054;-76
2023/04/14 12:20:45;;;;;;;6.50;1.65;;;;;;;;;;4988659;28;20539;-77
2023/04/14 12:23:12;;;;;;;;;;;;;;;;;;4993202;28;20054;-79
2023/04/14 12:25:39;;;;;;;3.90;1.05;;;;;;;;;;4985764;28;19922;-80
2023/04/14 12:28:06;;;;;;;5.20;1.35;;;;;;;;;;4988827;28;20054;-73
2023/04/14 12:30:36;;;;;;;3.25;1.45;;;;;;;;;;4971900;28;20057;-76
2023/04/14 12:33:10;;;;;;;5.38;1.17;;;;;;;;;;4986886;28;20111;-75
2023/04/14 12:35:38;;;;;;;3.45;1.00;;;;;;;;;;4973109;28;20507;-75
2023/04/14 12:38:11;;;;;;;7.00;1.73;;;;;;;;;;4993033;28;20049;-75
2023/04/14 12:40:40;;;;;;;5.78;1.95;;;;;;;;;;4968757;28;20094;-75
2023/04/14 12:43:06;;;;;;;3.22;1.45;;;;;;;;;;4977415;28;20058;-75
2023/04/14 12:45:47;;;;;;;4.78;1.42;;;;;;;;;;4986963;28;20421;-76
2023/04/14 12:48:17;;;;;;;8.80;1.50;;;;;;;;;;4984332;28;20537;-76
2023/04/14 12:50:43;;;;;;;5.30;1.42;;;;;;;;;;4989047;28;20478;-76
2023/04/14 12:53:23;;;;;;;4.20;1.38;;;;;;;;;;4991201;28;20057;-75
2023/04/14 12:56:10;;;;;;;7.18;1.10;;;;;;;;;;4982699;28;20058;-75
2023/04/14 12:58:38;;;;;;;8.18;1.40;;;;;;;;;;4993243;28;20107;-72
2023/04/14 13:01:06;;;;;;;5.32;1.10;;;;;;;;;;4984564;28;20108;-71
2023/04/14 13:03:48;;;;;;;3.63;1.65;;;;;;;;;;4981952;28;20076;-72
2023/04/14 13:06:21;;;;;;;6.65;1.88;;;;;;;;;;4984111;28;20564;-73
2023/04/14 13:08:53;;;;;;;4.93;1.50;;;;;;;;;;4984254;28;20109;-73
2023/04/14 13:11:22;;;;;;;5.07;1.75;;;;;;;;;;5006166;28;20061;-73
2023/04/14 13:13:52;;;;;;;3.92;1.42;;;;;;;;;;4966231;28;20057;-73
2023/04/14 13:16:20;;;;;;;5.47;1.27;;;;;;;;;;4974215;28;20052;-73
2023/04/14 13:18:51;;;;;;;3.53;1.20;;;;;;;;;;4990480;28;20103;-73
2023/04/14 13:21:18;;;;;;;3.45;1.45;;;;;;;;;;4991569;28;20477;-73
2023/04/14 13:23:45;;;;;;;4.97;1.23;;;;;;;;;;4989375;28;20082;-73
2023/04/14 13:26:15;;;;;;;2.63;1.40;;;;;;;;;;4991906;28;20050;-73
2023/04/14 13:28:43;;;;;;;6.00;1.67;;;;;;;;;;4997658;28;20434;-73
2023/04/14 13:31:11;;;;;;;4.68;1.00;;;;;;;;;;4984723;28;20089;-73
2023/04/14 13:33:40;;;;;;;2.75;1.17;;;;;;;;;;4988956;28;20057;-73
2023/04/14 13:36:08;;;;;;;5.30;1.20;;;;;;;;;;4977792;28;20478;-74
2023/04/14 13:38:35;;;;;;;2.58;1.13;;;;;;;;;;4999479;28;20050;-74
2023/04/14 13:41:02;;;;;;;2.08;0.80;;;;;;;;;;4971320;28;20058;-73
2023/04/14 13:43:32;;;;;;;3.42;0.80;;;;;;;;;;4991770;28;20144;-74
2023/04/14 13:46:00;;;;;;;3.78;1.00;;;;;;;;;;4981994;28;20053;-74
2023/04/14 13:48:26;;;;;;;4.32;1.33;;;;;;;;;;4991069;28;20149;-73
2023/04/14 13:50:54;;;;;;;3.03;1.00;;;;;;;;;;4981206;28;20054;-73
2023/04/14 13:53:21;;;;;;;4.10;1.40;;;;;;;;;;4990613;28;20506;-73
2023/04/14 13:55:48;;;;;;;2.90;0.80;;;;;;;;;;4984621;28;20053;-73
2023/04/14 13:58:15;;;;;;;2.35;1.00;;;;;;;;;;4983825;28;20054;-73
2023/04/14 14:00:42;;;;;;;2.13;0.93;;;;;;;;;;4988724;28;20103;-73
2023/04/14 14:03:09;;;;;;;1.95;0.93;;;;;;;;;;4990539;28;20409;-73
2023/04/14 14:05:36;;;;;;;1.50;0.77;;;;;;;;;;4997392;28;20066;-74
2023/04/14 14:08:03;;;;;;;1.88;1.00;;;;;;;;;;4976179;28;20591;-74
2023/04/14 14:10:29;;;;;;;5.57;1.33;;;;;;;;;;4982449;28;20141;-74
2023/04/14 14:12:56;;;;;;;2.25;0.70;;;;;;;;;;4983301;28;20050;-75
2023/04/14 14:15:23;;;;;;;4.50;1.02;;;;;;;;;;4998695;28;20054;-75
2023/04/14 14:17:51;;;;;;;4.20;1.20;;;;;;;;;;4981525;28;20489;-74
2023/04/14 14:20:19;;;;;;;2.72;1.08;;;;;;;;;;4989431;28;20057;-75
2023/04/14 14:22:46;;;;;;;4.10;1.13;;;;;;;;;;4975581;28;20077;-75
2023/04/14 14:25:14;;;;;;;5.00;1.48;;;;;;;;;;4969237;28;20066;-74
2023/04/14 14:27:49;;;;;;;2.95;0.90;;;;;;;;;;4985546;28;20399;-75
2023/04/14 14:30:15;;;;;;;1.80;0.88;;;;;;;;;;4975437;28;20059;-75
2023/04/14 14:32:42;;;;;;;2.22;1.10;;;;;;;;;;4987209;28;20480;-74
2023/04/14 14:35:09;;;;;;;3.17;1.10;;;;;;;;;;4972627;28;20089;-74
2023/04/14 14:37:37;;;;;;;2.40;0.90;;;;;;;;;;4982866;28;20086;-74
2023/04/14 14:40:05;;;;;;;2.92;0.93;;;;;;;;;;5002410;28;20540;-76
2023/04/14 14:42:32;;;;;;;2.92;1.00;;;;;;;;;;4984485;28;21003;-74
2023/04/14 14:44:59;;;;;;;2.72;1.02;;;;;;;;;;4979571;28;20057;-74
2023/04/14 14:47:27;;;;;;;2.47;0.82;;;;;;;;;;4974038;28;20510;-74
2023/04/14 14:49:59;;;;;;;2.22;0.80;;;;;;;;;;4981639;28;20045;-74
2023/04/14 14:52:30;;;;;;;4.38;1.33;;;;;;;;;;4983346;28;20054;-74